AirNav   Bose Proflight Series 2 Wireless Aviation Headset
 
 1000 users online  

TE86 Heritage Airfield
New Berlin, Texas, USA

GOING TO NEW BERLIN?


FAA INFORMATION EFFECTIVE 07 NOVEMBER 2019

Location

FAA Identifier: TE86
Lat/Long: 29-26-40.0000N 098-06-46.0000W
29-26.666667N 098-06.766667W
29.4444444,-98.1127778
(estimated)
Elevation: 555 ft. / 169 m (estimated)
Variation: 07E (1995)
From city: 3 miles SW of NEW BERLIN, TX
Time zone: UTC -6 (UTC -5 during Daylight Saving Time)
Zip code: 78121

Airport Operations

Airport use: Private use. Permission required prior to landing
Activation date: 08/2000
Control tower: no
ARTCC: HOUSTON CENTER
FSS: SAN ANGELO FLIGHT SERVICE STATION
Attendance: DAWN-DUSK
Wind indicator: yes
Segmented circle: no

Airport Communications

WX ASOS at BAZ (16 nm N): 119.325 (830-629-7979)
WX ASOS at SAT (19 nm W): PHONE 210-805-5583
WX ASOS at SSF (20 nm W): PHONE 210-927-9391
  • MULTICOM / CTAF 122.9MHZ

Nearby radio navigation aids

VOR radial/distance  VOR name  Freq  Var
RNDr111/10.1RANDOLPH VORTAC112.3005E
SSFr048/(20.6)STINSON VOR108.4009E
SATr115/21.8SAN ANTONIO VORTAC116.8008E

Airport Services

Runway Information

Runway 17/35

Dimensions: 3100 x 70 ft. / 945 x 21 m
Surface: turf
RUNWAY 17  RUNWAY 35
Traffic pattern: leftright
Obstructions: trees15 ft. fence, 200 ft. from runway

Airport Ownership and Management from official FAA records

Ownership: Privately-owned
OWNER: TEXAS HERITAGE PROPERTY OWNERS ASSOCIATION, INC.
Owner: TEXAS HERITAGE PROPERTY OWNERS ASSN
P.O. BOX 23
LAVERNIA, TX 78121
Phone (210) 414-7445
Manager: DAN KELLY
343 TEXAS HERITAGE DRIVE
LAVERNIA, TX 78121
Phone (830) 391-4120

Airport Operational Statistics

Aircraft based on the field: 23
Single engine airplanes: 23
    

Additional Remarks

FOR CD CTC SAN ANTONIO APCH AT 210-805-5516.

Instrument Procedures

There are no published instrument procedures at TE86.

Some nearby airports with instrument procedures:

KRND - Randolph Air Force Base (10 nm NW)
KBAZ - New Braunfels Regional Airport (16 nm N)
KSAT - San Antonio International Airport (19 nm W)
KSSF - Stinson Municipal Airport (20 nm W)
KSKF - Kelly Field Airport (25 nm W)
 
Loc | Ops | Rwys | IFR | FBO | Links
Com | Nav | Svcs | Stats | Notes
Area around TE86 (Heritage Airfield)
 
Road maps at: MapQuest Bing Google
 
Aerial photo
WARNING: Photo may not be current or correct
Aerial photo of TE86 (Heritage Airfield)
Do you have a better or more recent aerial photo of Heritage Airfield that you would like to share? If so, please send us your photo.

 
Sectional chart

 
Airport distance calculator
Flying to Heritage Airfield? Find the distance to fly.

From to TE86

Sunrise and sunset
Times for 21-Nov-2019
 Local
(UTC-6)
 Zulu
(UTC)
Morning civil twilight06:3712:37
Sunrise07:0313:03
Sunset17:3423:34
Evening civil twilight18:0024:00

Current date and time
Zulu (UTC)  22-Nov-2019 02:22:39
Local (UTC-6)  21-Nov-2019 20:22:39
 
METAR
KRND 
9nm NW 
220156Z AUTO 14006KT 10SM FEW028 OVC042 22/18 A2992 RMK AO2 SLP126 T02240184
KSEQ 
13nm NE 
220158Z AUTO 13005KT 10SM OVC043 22/19 A2996 RMK AO2 SLP143 T02230185
KBAZ 
17nm N 
220151Z AUTO 14009KT 10SM OVC038 23/18 A2991 RMK AO2 SLP121 T02280183
KSAT 
19nm W 
220151Z 12007KT 10SM FEW035 OVC043 22/17 A2992 RMK AO2 SLP116 T02220172
KSSF 
20nm W 
220153Z 13007KT 10SM BKN045 23/19 A2989 RMK AO2 SLP116 T02280189
TAF
KRND 
9nm NW 
212350Z 2123/2224 17012KT 9999 BKN020 520001 540101 QNH2983INS TEMPO 2123/2124 16015G25KT BECMG 2210/2211 20009KT 8000 BR BKN010 QNH2986INS BECMG 2215/2216 25010G15KT 9000 -SHRA BKN010 QNH2996INS BECMG 2218/2219 35012G20KT 9999 NSW SCT020 QNH2998INS BECMG 2220/2221 36010KT 9999 SKC QNH3000INS TX25/2220Z TN19/2212Z LAST NO AMDS AFT 2201 NEXT 2210
KSAT 
19nm W 
211740Z 2118/2224 16007KT P6SM BKN022 OVC035 FM211900 15011KT P6SM BKN035 FM220300 15009KT P6SM BKN015 FM220900 17006KT 6SM BR OVC007 FM221200 17004KT 5SM BR VCSH OVC004 FM221600 36009KT P6SM VCSH OVC011 FM222100 35012KT P6SM OVC025
KSSF 
20nm W 
211740Z 2118/2218 17008KT P6SM BKN023 OVC028 FM211900 15011KT P6SM BKN035 FM220400 15007KT P6SM BKN015 FM220900 14005KT 6SM BR VCSH OVC007 FM221600 02008KT P6SM VCSH OVC012
NOTAMs
Click for the latest NOTAMs
NOTAMs are issued by the DoD/FAA and will open in a separate window not controlled by AirNav.

 

 
 

Would you like to see your business listed on this page?

 If your business provides an interesting product or service to pilots, flight crews, aircraft, or users of the Heritage Airfield, you should consider listing it here.  To start the listing process, click on the button below
 
Add a business
 

Other Pages about Heritage Airfield

www.heritageairpark.com
 
Update a link
 
Copyright © AirNav, LLC. All rights reserved. Privacy Policy  Contact